高雄國際航空站 - ATIS

METAR RCKH 161900Z 03004KT 4500 -RA FEW012 BKN030 BKN050 20/18 Q1009 NOSIG RMK A2982=

站台狀態:Online
最後更新:2022-05-17 03:00:01